MMOX/OAX METAR and TAF weather

Enter ICAO airport designator
Station Type Date Time Source
MMOX METAR 2021/09/20 00:48 UTC NOAA

MMOX 200048Z 00000KT 7SM BKN040CB BKN200 20/14 A3019 RMK 8/908


Station Type Date Time Source
MMOX Decoded METAR 2021/09/20 00:48 UTC NOAA

Oaxaca / Xoxocotlan, Mexico (MMOX) 16-58N 096-44W
Sep 19, 2021 - 08:48 PM EDT / 2021.09.20 0048 UTC
Wind: Calm:0
Visibility: 7 mile(s):0
Sky conditions: mostly cloudy
Weather: Cumulonimbus clouds observed
Temperature: 68 F (20 C)
Dew Point: 57 F (14 C)
Relative Humidity: 68%
Pressure (altimeter): 30.19 in. Hg (1022 hPa)
ob: MMOX 200048Z 00000KT 7SM BKN040CB BKN200 20/14 A3019 RMK 8/908
cycle: 1

Station Type Date Time Source
MMOX TAF 2021/09/20 06:44 UTC NOAA

TAF MMOX 200438Z 2006/2106 00000KT P6SM SCT030 BKN250
FM201800 03010KT P6SM SCT030 BKN080 BKN250
FM210500 32005KT P6SM SCT030 BKN250

Example: see airport list